sensor_id;sensor_type;location;lat;lon;timestamp;pressure;altitude;pressure_sealevel;temperature;humidity
51452;BME280;37521;52.020;-1.740;2023-05-20T00:00:06;101192.91;;;5.70;100.00
51452;BME280;37521;52.020;-1.740;2023-05-20T00:02:35;101191.16;;;5.67;100.00
51452;BME280;37521;52.020;-1.740;2023-05-20T00:05:04;101190.28;;;5.67;100.00
51452;BME280;37521;52.020;-1.740;2023-05-20T00:07:33;101189.47;;;5.60;100.00
51452;BME280;37521;52.020;-1.740;2023-05-20T00:10:02;101185.16;;;5.52;100.00
51452;BME280;37521;52.020;-1.740;2023-05-20T00:12:30;101186.97;;;5.43;100.00
51452;BME280;37521;52.020;-1.740;2023-05-20T00:14:59;101187.00;;;5.37;100.00
51452;BME280;37521;52.020;-1.740;2023-05-20T00:17:29;101182.69;;;5.32;100.00
51452;BME280;37521;52.020;-1.740;2023-05-20T00:19:57;101190.59;;;5.24;100.00
51452;BME280;37521;52.020;-1.740;2023-05-20T00:22:26;101192.34;;;5.22;100.00
51452;BME280;37521;52.020;-1.740;2023-05-20T00:24:55;101195.81;;;5.24;100.00
51452;BME280;37521;52.020;-1.740;2023-05-20T00:27:23;101191.44;;;5.29;100.00
51452;BME280;37521;52.020;-1.740;2023-05-20T00:29:52;101193.09;;;5.39;100.00
51452;BME280;37521;52.020;-1.740;2023-05-20T00:32:20;101191.28;;;5.47;100.00
51452;BME280;37521;52.020;-1.740;2023-05-20T00:34:56;101186.06;;;5.51;100.00
51452;BME280;37521;52.020;-1.740;2023-05-20T00:37:25;101193.03;;;5.52;100.00
51452;BME280;37521;52.020;-1.740;2023-05-20T00:39:53;101200.03;;;5.48;100.00
51452;BME280;37521;52.020;-1.740;2023-05-20T00:42:22;101199.19;;;5.41;100.00
51452;BME280;37521;52.020;-1.740;2023-05-20T00:44:51;101194.03;;;5.35;100.00
51452;BME280;37521;52.020;-1.740;2023-05-20T00:47:22;101209.72;;;5.32;100.00
51452;BME280;37521;52.020;-1.740;2023-05-20T00:49:53;101197.50;;;5.33;100.00
51452;BME280;37521;52.020;-1.740;2023-05-20T00:52:23;101201.94;;;5.23;100.00
51452;BME280;37521;52.020;-1.740;2023-05-20T00:54:52;101194.13;;;5.14;100.00
51452;BME280;37521;52.020;-1.740;2023-05-20T00:57:21;101193.28;;;5.10;100.00
51452;BME280;37521;52.020;-1.740;2023-05-20T00:59:49;101194.16;;;5.05;100.00
51452;BME280;37521;52.020;-1.740;2023-05-20T01:02:19;101196.81;;;4.97;100.00
51452;BME280;37521;52.020;-1.740;2023-05-20T01:04:49;101192.50;;;4.90;100.00
51452;BME280;37521;52.020;-1.740;2023-05-20T01:07:18;101196.03;;;4.78;100.00
51452;BME280;37521;52.020;-1.740;2023-05-20T01:09:48;101200.41;;;4.76;100.00
51452;BME280;37521;52.020;-1.740;2023-05-20T01:12:21;101196.91;;;4.73;100.00
51452;BME280;37521;52.020;-1.740;2023-05-20T01:14:55;101197.84;;;4.58;100.00
51452;BME280;37521;52.020;-1.740;2023-05-20T01:17:30;101185.66;;;4.51;100.00
51452;BME280;37521;52.020;-1.740;2023-05-20T01:20:01;101185.66;;;4.45;100.00
51452;BME280;37521;52.020;-1.740;2023-05-20T01:22:32;101178.72;;;4.37;100.00
51452;BME280;37521;52.020;-1.740;2023-05-20T01:25:01;101190.91;;;4.38;100.00
51452;BME280;37521;52.020;-1.740;2023-05-20T01:27:30;101182.19;;;4.43;100.00
51452;BME280;37521;52.020;-1.740;2023-05-20T01:29:58;101180.44;;;4.45;100.00
51452;BME280;37521;52.020;-1.740;2023-05-20T01:32:31;101190.88;;;4.48;100.00
51452;BME280;37521;52.020;-1.740;2023-05-20T01:35:00;101183.03;;;4.45;100.00
51452;BME280;37521;52.020;-1.740;2023-05-20T01:37:30;101180.44;;;4.32;100.00
51452;BME280;37521;52.020;-1.740;2023-05-20T01:40:03;101181.34;;;4.25;100.00
51452;BME280;37521;52.020;-1.740;2023-05-20T01:42:32;101178.72;;;4.21;100.00
51452;BME280;37521;52.020;-1.740;2023-05-20T01:45:02;101187.44;;;4.14;100.00
51452;BME280;37521;52.020;-1.740;2023-05-20T01:47:31;101180.50;;;4.11;100.00
51452;BME280;37521;52.020;-1.740;2023-05-20T01:50:00;101178.75;;;4.12;100.00
51452;BME280;37521;52.020;-1.740;2023-05-20T01:52:29;101181.34;;;4.21;100.00
51452;BME280;37521;52.020;-1.740;2023-05-20T01:54:58;101175.25;;;4.23;100.00
51452;BME280;37521;52.020;-1.740;2023-05-20T01:57:28;101172.66;;;4.22;100.00
51452;BME280;37521;52.020;-1.740;2023-05-20T01:59:56;101167.41;;;4.23;100.00
51452;BME280;37521;52.020;-1.740;2023-05-20T02:02:25;101166.53;;;4.24;100.00
51452;BME280;37521;52.020;-1.740;2023-05-20T02:04:54;101173.50;;;4.19;100.00
51452;BME280;37521;52.020;-1.740;2023-05-20T02:07:22;101167.44;;;4.08;100.00
51452;BME280;37521;52.020;-1.740;2023-05-20T02:09:51;101172.66;;;3.99;100.00
51452;BME280;37521;52.020;-1.740;2023-05-20T02:12:20;101164.84;;;3.96;100.00
51452;BME280;37521;52.020;-1.740;2023-05-20T02:14:50;101165.72;;;3.96;100.00
51452;BME280;37521;52.020;-1.740;2023-05-20T02:17:18;101161.34;;;4.00;100.00
51452;BME280;37521;52.020;-1.740;2023-05-20T02:19:47;101163.09;;;3.92;100.00
51452;BME280;37521;52.020;-1.740;2023-05-20T02:22:15;101171.78;;;3.78;100.00
51452;BME280;37521;52.020;-1.740;2023-05-20T02:24:43;101170.06;;;3.71;100.00
51452;BME280;37521;52.020;-1.740;2023-05-20T02:27:12;101167.47;;;3.76;100.00
51452;BME280;37521;52.020;-1.740;2023-05-20T02:29:41;101163.97;;;3.72;100.00
51452;BME280;37521;52.020;-1.740;2023-05-20T02:32:12;101163.94;;;3.68;100.00
51452;BME280;37521;52.020;-1.740;2023-05-20T02:34:40;101165.69;;;3.64;100.00
51452;BME280;37521;52.020;-1.740;2023-05-20T02:37:09;101167.44;;;3.56;100.00
51452;BME280;37521;52.020;-1.740;2023-05-20T02:39:37;101168.28;;;3.46;100.00
51452;BME280;37521;52.020;-1.740;2023-05-20T02:42:06;101173.50;;;3.46;100.00
51452;BME280;37521;52.020;-1.740;2023-05-20T02:44:34;101164.81;;;3.47;100.00
51452;BME280;37521;52.020;-1.740;2023-05-20T02:47:02;101159.59;;;3.47;100.00
51452;BME280;37521;52.020;-1.740;2023-05-20T02:49:32;101163.09;;;3.41;100.00
51452;BME280;37521;52.020;-1.740;2023-05-20T02:52:02;101160.47;;;3.43;100.00
51452;BME280;37521;52.020;-1.740;2023-05-20T02:54:30;101154.34;;;3.38;100.00
51452;BME280;37521;52.020;-1.740;2023-05-20T02:56:58;101159.56;;;3.41;100.00
51452;BME280;37521;52.020;-1.740;2023-05-20T02:59:28;101155.25;;;3.35;100.00
51452;BME280;37521;52.020;-1.740;2023-05-20T03:01:56;101160.44;;;3.31;100.00
51452;BME280;37521;52.020;-1.740;2023-05-20T03:04:25;101159.59;;;3.28;100.00
51452;BME280;37521;52.020;-1.740;2023-05-20T03:06:55;101164.81;;;3.28;100.00
51452;BME280;37521;52.020;-1.740;2023-05-20T03:09:24;101158.69;;;3.26;100.00
51452;BME280;37521;52.020;-1.740;2023-05-20T03:11:52;101165.63;;;3.15;100.00
51452;BME280;37521;52.020;-1.740;2023-05-20T03:14:21;101163.03;;;3.15;100.00
51452;BME280;37521;52.020;-1.740;2023-05-20T03:16:49;101157.81;;;3.21;100.00
51452;BME280;37521;52.020;-1.740;2023-05-20T03:19:18;101152.59;;;3.23;100.00
51452;BME280;37521;52.020;-1.740;2023-05-20T03:21:48;101152.59;;;3.18;100.00
51452;BME280;37521;52.020;-1.740;2023-05-20T03:24:18;101150.88;;;3.30;100.00
51452;BME280;37521;52.020;-1.740;2023-05-20T03:26:49;101152.63;;;3.43;100.00
51452;BME280;37521;52.020;-1.740;2023-05-20T03:29:18;101152.63;;;3.52;100.00
51452;BME280;37521;52.020;-1.740;2023-05-20T03:31:47;101147.41;;;3.67;100.00
51452;BME280;37521;52.020;-1.740;2023-05-20T03:34:15;101153.50;;;3.78;100.00
51452;BME280;37521;52.020;-1.740;2023-05-20T03:36:45;101154.38;;;3.83;100.00
51452;BME280;37521;52.020;-1.740;2023-05-20T03:39:14;101148.28;;;3.86;100.00
51452;BME280;37521;52.020;-1.740;2023-05-20T03:41:45;101151.75;;;3.99;100.00
51452;BME280;37521;52.020;-1.740;2023-05-20T03:44:14;101157.00;;;4.08;100.00
51452;BME280;37521;52.020;-1.740;2023-05-20T03:46:42;101155.22;;;4.16;100.00
51452;BME280;37521;52.020;-1.740;2023-05-20T03:49:12;101151.75;;;4.22;100.00
51452;BME280;37521;52.020;-1.740;2023-05-20T03:51:40;101159.56;;;4.31;100.00
51452;BME280;37521;52.020;-1.740;2023-05-20T03:54:11;101155.16;;;4.39;100.00
51452;BME280;37521;52.020;-1.740;2023-05-20T03:56:40;101145.56;;;4.49;100.00
51452;BME280;37521;52.020;-1.740;2023-05-20T03:59:10;101148.16;;;4.56;100.00
51452;BME280;37521;52.020;-1.740;2023-05-20T04:01:39;101143.75;;;4.63;100.00
51452;BME280;37521;52.020;-1.740;2023-05-20T04:04:07;101147.22;;;4.70;100.00
51452;BME280;37521;52.020;-1.740;2023-05-20T04:06:36;101140.22;;;4.73;100.00
51452;BME280;37521;52.020;-1.740;2023-05-20T04:09:04;101148.94;;;4.78;100.00
51452;BME280;37521;52.020;-1.740;2023-05-20T04:11:33;101135.81;;;4.84;100.00
51452;BME280;37521;52.020;-1.740;2023-05-20T04:14:01;101134.97;;;4.82;100.00
51452;BME280;37521;52.020;-1.740;2023-05-20T04:16:31;101140.16;;;4.85;100.00
51452;BME280;37521;52.020;-1.740;2023-05-20T04:19:00;101132.31;;;4.87;100.00
51452;BME280;37521;52.020;-1.740;2023-05-20T04:21:29;101131.44;;;4.89;100.00
51452;BME280;37521;52.020;-1.740;2023-05-20T04:23:58;101120.94;;;4.96;100.00
51452;BME280;37521;52.020;-1.740;2023-05-20T04:26:27;101126.16;;;5.02;100.00
51452;BME280;37521;52.020;-1.740;2023-05-20T04:28:56;101130.44;;;5.07;100.00
51452;BME280;37521;52.020;-1.740;2023-05-20T04:31:28;101140.94;;;5.06;100.00
51452;BME280;37521;52.020;-1.740;2023-05-20T04:33:58;101138.31;;;5.06;100.00
51452;BME280;37521;52.020;-1.740;2023-05-20T04:36:26;101133.97;;;5.03;100.00
51452;BME280;37521;52.020;-1.740;2023-05-20T04:38:55;101137.47;;;5.04;100.00
51452;BME280;37521;52.020;-1.740;2023-05-20T04:41:24;101128.69;;;5.12;100.00
51452;BME280;37521;52.020;-1.740;2023-05-20T04:43:54;101136.50;;;5.14;100.00
51452;BME280;37521;52.020;-1.740;2023-05-20T04:46:25;101129.56;;;5.10;100.00
51452;BME280;37521;52.020;-1.740;2023-05-20T04:48:54;101132.22;;;5.08;100.00
51452;BME280;37521;52.020;-1.740;2023-05-20T04:51:24;101123.47;;;5.08;100.00
51452;BME280;37521;52.020;-1.740;2023-05-20T04:53:52;101130.41;;;5.13;100.00
51452;BME280;37521;52.020;-1.740;2023-05-20T04:56:21;101133.88;;;5.18;100.00
51452;BME280;37521;52.020;-1.740;2023-05-20T04:58:49;101128.66;;;5.18;100.00
51452;BME280;37521;52.020;-1.740;2023-05-20T05:01:19;101125.19;;;5.15;100.00
51452;BME280;37521;52.020;-1.740;2023-05-20T05:04:09;101127.81;;;5.15;100.00
51452;BME280;37521;52.020;-1.740;2023-05-20T05:06:39;101131.28;;;5.14;100.00
51452;BME280;37521;52.020;-1.740;2023-05-20T05:09:07;101132.16;;;5.16;100.00
51452;BME280;37521;52.020;-1.740;2023-05-20T05:11:39;101134.75;;;5.22;100.00
51452;BME280;37521;52.020;-1.740;2023-05-20T05:14:07;101135.63;;;5.23;100.00
51452;BME280;37521;52.020;-1.740;2023-05-20T05:16:36;101126.00;;;5.20;100.00
51452;BME280;37521;52.020;-1.740;2023-05-20T05:19:04;101132.97;;;5.24;100.00
51452;BME280;37521;52.020;-1.740;2023-05-20T05:21:36;101132.94;;;5.27;100.00
51452;BME280;37521;52.020;-1.740;2023-05-20T05:24:06;101139.91;;;5.28;100.00
51452;BME280;37521;52.020;-1.740;2023-05-20T05:26:35;101140.84;;;5.21;100.00
51452;BME280;37521;52.020;-1.740;2023-05-20T05:29:03;101148.75;;;5.12;100.00
51452;BME280;37521;52.020;-1.740;2023-05-20T05:31:31;101139.16;;;5.08;100.00
51452;BME280;37521;52.020;-1.740;2023-05-20T05:34:00;101127.84;;;5.06;100.00
51452;BME280;37521;52.020;-1.740;2023-05-20T05:36:32;101130.44;;;5.12;100.00
51452;BME280;37521;52.020;-1.740;2023-05-20T05:39:01;101126.03;;;5.14;100.00
51452;BME280;37521;52.020;-1.740;2023-05-20T05:41:31;101128.69;;;5.15;100.00
51452;BME280;37521;52.020;-1.740;2023-05-20T05:44:00;101131.25;;;5.23;100.00
51452;BME280;37521;52.020;-1.740;2023-05-20T05:46:29;101132.94;;;5.27;100.00
51452;BME280;37521;52.020;-1.740;2023-05-20T05:48:59;101126.84;;;5.27;100.00
51452;BME280;37521;52.020;-1.740;2023-05-20T05:51:27;101125.97;;;5.29;100.00
51452;BME280;37521;52.020;-1.740;2023-05-20T05:53:57;101126.81;;;5.31;100.00
51452;BME280;37521;52.020;-1.740;2023-05-20T05:56:25;101132.13;;;5.22;100.00
51452;BME280;37521;52.020;-1.740;2023-05-20T05:58:56;101117.28;;;5.23;100.00
51452;BME280;37521;52.020;-1.740;2023-05-20T06:01:25;101119.00;;;5.25;100.00
51452;BME280;37521;52.020;-1.740;2023-05-20T06:03:54;101121.63;;;5.25;100.00
51452;BME280;37521;52.020;-1.740;2023-05-20T06:06:23;101132.91;;;5.33;100.00
51452;BME280;37521;52.020;-1.740;2023-05-20T06:08:51;101135.50;;;5.35;100.00
51452;BME280;37521;52.020;-1.740;2023-05-20T06:11:20;101130.31;;;5.32;100.00
51452;BME280;37521;52.020;-1.740;2023-05-20T06:13:50;101134.63;;;5.34;100.00
51452;BME280;37521;52.020;-1.740;2023-05-20T06:16:20;101130.25;;;5.35;100.00
51452;BME280;37521;52.020;-1.740;2023-05-20T06:18:51;101128.56;;;5.28;100.00
51452;BME280;37521;52.020;-1.740;2023-05-20T06:21:23;101132.03;;;5.36;100.00
51452;BME280;37521;52.020;-1.740;2023-05-20T06:23:52;101127.63;;;5.42;100.00
51452;BME280;37521;52.020;-1.740;2023-05-20T06:26:20;101129.31;;;5.46;100.00
51452;BME280;37521;52.020;-1.740;2023-05-20T06:28:48;101129.22;;;5.60;100.00
51452;BME280;37521;52.020;-1.740;2023-05-20T06:31:17;101113.50;;;5.59;100.00
51452;BME280;37521;52.020;-1.740;2023-05-20T06:33:48;101117.00;;;5.58;100.00
51452;BME280;37521;52.020;-1.740;2023-05-20T06:36:16;101116.22;;;5.50;100.00
51452;BME280;37521;52.020;-1.740;2023-05-20T06:38:46;101115.28;;;5.54;100.00
51452;BME280;37521;52.020;-1.740;2023-05-20T06:41:15;101113.50;;;5.59;100.00
51452;BME280;37521;52.020;-1.740;2023-05-20T06:43:43;101118.75;;;5.59;100.00
51452;BME280;37521;52.020;-1.740;2023-05-20T06:46:30;101118.75;;;5.59;100.00
51452;BME280;37521;52.020;-1.740;2023-05-20T06:49:05;101132.75;;;5.56;100.00
51452;BME280;37521;52.020;-1.740;2023-05-20T06:51:34;101126.69;;;5.48;100.00
51452;BME280;37521;52.020;-1.740;2023-05-20T06:54:03;101127.66;;;5.36;100.00
51452;BME280;37521;52.020;-1.740;2023-05-20T06:56:31;101123.34;;;5.31;100.00
51452;BME280;37521;52.020;-1.740;2023-05-20T06:59:00;101128.53;;;5.35;100.00
51452;BME280;37521;52.020;-1.740;2023-05-20T07:01:32;101117.16;;;5.42;100.00
51452;BME280;37521;52.020;-1.740;2023-05-20T07:04:01;101118.75;;;5.59;100.00
51452;BME280;37521;52.020;-1.740;2023-05-20T07:06:33;101109.97;;;5.64;100.00
51452;BME280;37521;52.020;-1.740;2023-05-20T07:09:02;101110.84;;;5.65;100.00
51452;BME280;37521;52.020;-1.740;2023-05-20T07:11:32;101114.41;;;5.56;100.00
51452;BME280;37521;52.020;-1.740;2023-05-20T07:14:00;101110.16;;;5.43;100.00
51452;BME280;37521;52.020;-1.740;2023-05-20T07:16:30;101098.75;;;5.47;100.00
51452;BME280;37521;52.020;-1.740;2023-05-20T07:19:01;101106.50;;;5.61;100.00
51452;BME280;37521;52.020;-1.740;2023-05-20T07:21:30;101107.25;;;5.75;100.00
51452;BME280;37521;52.020;-1.740;2023-05-20T07:24:29;101106.38;;;5.74;100.00
51452;BME280;37521;52.020;-1.740;2023-05-20T07:26:58;101104.66;;;5.72;100.00
51452;BME280;37521;52.020;-1.740;2023-05-20T07:29:26;101104.66;;;5.72;100.00
51452;BME280;37521;52.020;-1.740;2023-05-20T07:31:55;101110.81;;;5.69;100.00
51452;BME280;37521;52.020;-1.740;2023-05-20T07:34:24;101110.75;;;5.77;100.00
51452;BME280;37521;52.020;-1.740;2023-05-20T07:36:52;101105.53;;;5.72;100.00
51452;BME280;37521;52.020;-1.740;2023-05-20T07:39:20;101116.78;;;5.85;100.00
51452;BME280;37521;52.020;-1.740;2023-05-20T07:41:51;101111.44;;;5.97;100.00
51452;BME280;37521;52.020;-1.740;2023-05-20T07:44:19;101114.03;;;6.00;100.00
51452;BME280;37521;52.020;-1.740;2023-05-20T07:46:52;101107.09;;;5.96;100.00
51452;BME280;37521;52.020;-1.740;2023-05-20T07:49:21;101113.22;;;5.94;100.00
51452;BME280;37521;52.020;-1.740;2023-05-20T07:51:50;101114.06;;;5.99;100.00
51452;BME280;37521;52.020;-1.740;2023-05-20T07:54:19;101108.72;;;6.10;100.00
51452;BME280;37521;52.020;-1.740;2023-05-20T07:56:51;101112.09;;;6.19;100.00
51452;BME280;37521;52.020;-1.740;2023-05-20T07:59:20;101112.91;;;6.26;100.00
51452;BME280;37521;52.020;-1.740;2023-05-20T08:01:49;101114.63;;;6.27;100.00
51452;BME280;37521;52.020;-1.740;2023-05-20T08:04:19;101100.56;;;6.34;100.00
51452;BME280;37521;52.020;-1.740;2023-05-20T08:06:48;101098.75;;;6.42;100.00
51452;BME280;37521;52.020;-1.740;2023-05-20T08:09:23;101108.97;;;6.64;100.00
51452;BME280;37521;52.020;-1.740;2023-05-20T08:11:55;101102.50;;;6.88;100.00
51452;BME280;37521;52.020;-1.740;2023-05-20T08:14:24;101101.56;;;6.93;100.00
51452;BME280;37521;52.020;-1.740;2023-05-20T08:16:53;101100.59;;;7.00;100.00
51452;BME280;37521;52.020;-1.740;2023-05-20T08:19:22;101105.81;;;7.03;100.00
51452;BME280;37521;52.020;-1.740;2023-05-20T08:21:50;101103.97;;;7.10;100.00
51452;BME280;37521;52.020;-1.740;2023-05-20T08:24:20;101111.72;;;7.18;100.00
51452;BME280;37521;52.020;-1.740;2023-05-20T08:26:48;101102.03;;;7.23;100.00
51452;BME280;37521;52.020;-1.740;2023-05-20T08:29:20;101096.75;;;7.24;100.00
51452;BME280;37521;52.020;-1.740;2023-05-20T08:31:48;101100.94;;;7.34;100.00
51452;BME280;37521;52.020;-1.740;2023-05-20T08:34:19;101104.34;;;7.41;100.00
51452;BME280;37521;52.020;-1.740;2023-05-20T08:36:47;101098.25;;;7.39;100.00
51452;BME280;37521;52.020;-1.740;2023-05-20T08:39:16;101101.69;;;7.44;100.00
51452;BME280;37521;52.020;-1.740;2023-05-20T08:41:46;101093.59;;;7.56;100.00
51452;BME280;37521;52.020;-1.740;2023-05-20T08:44:15;101090.88;;;7.62;100.00
51452;BME280;37521;52.020;-1.740;2023-05-20T08:46:47;101087.16;;;7.74;100.00
51452;BME280;37521;52.020;-1.740;2023-05-20T08:49:18;101093.06;;;7.87;100.00
51452;BME280;37521;52.020;-1.740;2023-05-20T08:51:47;101086.78;;;7.94;100.00
51452;BME280;37521;52.020;-1.740;2023-05-20T08:54:15;101094.78;;;7.88;100.00
51452;BME280;37521;52.020;-1.740;2023-05-20T08:56:45;101092.06;;;7.94;100.00
51452;BME280;37521;52.020;-1.740;2023-05-20T08:59:14;101093.53;;;8.10;100.00
51452;BME280;37521;52.020;-1.740;2023-05-20T09:01:43;101084.28;;;8.34;100.00
51452;BME280;37521;52.020;-1.740;2023-05-20T09:04:13;101091.13;;;8.44;100.00
51452;BME280;37521;52.020;-1.740;2023-05-20T09:06:42;101093.53;;;8.55;100.00
51452;BME280;37521;52.020;-1.740;2023-05-20T09:09:11;101093.22;;;8.70;100.00
51452;BME280;37521;52.020;-1.740;2023-05-20T09:11:40;101083.38;;;8.79;100.00
51452;BME280;37521;52.020;-1.740;2023-05-20T09:14:09;101085.81;;;8.88;100.00
51452;BME280;37521;52.020;-1.740;2023-05-20T09:16:38;101085.50;;;9.03;100.00
51452;BME280;37521;52.020;-1.740;2023-05-20T09:19:07;101082.44;;;9.20;100.00
51452;BME280;37521;52.020;-1.740;2023-05-20T09:21:40;101081.44;;;9.25;100.00
51452;BME280;37521;52.020;-1.740;2023-05-20T09:24:08;101075.03;;;9.37;100.00
51452;BME280;37521;52.020;-1.740;2023-05-20T09:26:37;101075.50;;;9.53;100.00
51452;BME280;37521;52.020;-1.740;2023-05-20T09:29:06;101087.56;;;9.63;100.00
51452;BME280;37521;52.020;-1.740;2023-05-20T09:31:34;101066.88;;;9.80;100.00
51452;BME280;37521;52.020;-1.740;2023-05-20T09:34:05;101074.16;;;10.05;100.00
51452;BME280;37521;52.020;-1.740;2023-05-20T09:36:34;101073.72;;;10.20;100.00
51452;BME280;37521;52.020;-1.740;2023-05-20T09:39:07;101072.78;;;10.24;100.00
51452;BME280;37521;52.020;-1.740;2023-05-20T09:41:37;101068.31;;;10.26;100.00
51452;BME280;37521;52.020;-1.740;2023-05-20T09:44:06;101059.22;;;10.36;100.00
51452;BME280;37521;52.020;-1.740;2023-05-20T09:46:36;101057.06;;;10.51;100.00
51452;BME280;37521;52.020;-1.740;2023-05-20T09:49:06;101054.69;;;10.71;100.00
51452;BME280;37521;52.020;-1.740;2023-05-20T09:51:36;101044.50;;;10.87;100.00
51452;BME280;37521;52.020;-1.740;2023-05-20T09:54:06;101047.56;;;11.01;100.00
51452;BME280;37521;52.020;-1.740;2023-05-20T09:56:37;101043.88;;;11.07;100.00
51452;BME280;37521;52.020;-1.740;2023-05-20T09:59:06;101042.78;;;11.14;100.00
51452;BME280;37521;52.020;-1.740;2023-05-20T10:01:36;101042.72;;;11.15;100.00
51452;BME280;37521;52.020;-1.740;2023-05-20T10:04:05;101039.13;;;11.18;100.00
51452;BME280;37521;52.020;-1.740;2023-05-20T10:06:49;101041.56;;;11.24;100.00
51452;BME280;37521;52.020;-1.740;2023-05-20T10:09:46;101041.97;;;11.38;100.00
51452;BME280;37521;52.020;-1.740;2023-05-20T10:12:26;101042.72;;;11.42;100.00
51452;BME280;37521;52.020;-1.740;2023-05-20T10:15:05;101034.78;;;11.42;100.00
51452;BME280;37521;52.020;-1.740;2023-05-20T10:17:40;101032.94;;;11.45;100.00
51452;BME280;37521;52.020;-1.740;2023-05-20T10:20:12;101022.88;;;11.55;100.00
51452;BME280;37521;52.020;-1.740;2023-05-20T10:22:40;101022.19;;;11.75;100.00
51452;BME280;37521;52.020;-1.740;2023-05-20T10:25:23;101017.13;;;12.19;100.00
51452;BME280;37521;52.020;-1.740;2023-05-20T10:28:03;101009.88;;;12.47;100.00
51452;BME280;37521;52.020;-1.740;2023-05-20T10:30:34;101009.28;;;12.63;100.00
51452;BME280;37521;52.020;-1.740;2023-05-20T10:33:04;101005.22;;;12.76;100.00
51452;BME280;37521;52.020;-1.740;2023-05-20T10:35:34;101006.09;;;12.76;100.00
51452;BME280;37521;52.020;-1.740;2023-05-20T10:38:09;101001.47;;;12.81;100.00
51452;BME280;37521;52.020;-1.740;2023-05-20T10:40:39;101002.25;;;12.62;100.00
51452;BME280;37521;52.020;-1.740;2023-05-20T10:43:09;100998.88;;;12.35;100.00
51452;BME280;37521;52.020;-1.740;2023-05-20T10:45:48;100996.78;;;12.44;100.00
51452;BME280;37521;52.020;-1.740;2023-05-20T10:48:21;100990.81;;;12.83;100.00
51452;BME280;37521;52.020;-1.740;2023-05-20T10:50:53;100981.81;;;12.87;100.00
51452;BME280;37521;52.020;-1.740;2023-05-20T10:53:23;100980.09;;;12.86;100.00
51452;BME280;37521;52.020;-1.740;2023-05-20T10:56:01;100993.41;;;13.06;100.00
51452;BME280;37521;52.020;-1.740;2023-05-20T10:58:36;100987.13;;;13.31;100.00
51452;BME280;37521;52.020;-1.740;2023-05-20T11:01:04;100982.81;;;13.49;100.00
51452;BME280;37521;52.020;-1.740;2023-05-20T11:03:34;100985.31;;;13.09;100.00
51452;BME280;37521;52.020;-1.740;2023-05-20T11:06:10;100980.91;;;13.32;100.00
51452;BME280;37521;52.020;-1.740;2023-05-20T11:08:40;100981.97;;;13.69;100.00
51452;BME280;37521;52.020;-1.740;2023-05-20T11:11:11;100973.13;;;13.88;100.00
51452;BME280;37521;52.020;-1.740;2023-05-20T11:13:41;100966.25;;;14.03;100.00
51452;BME280;37521;52.020;-1.740;2023-05-20T11:16:09;100977.91;;;13.80;100.00
51452;BME280;37521;52.020;-1.740;2023-05-20T11:18:38;100969.47;;;13.71;100.00
51452;BME280;37521;52.020;-1.740;2023-05-20T11:21:06;100970.06;;;13.57;100.00
51452;BME280;37521;52.020;-1.740;2023-05-20T11:23:35;100964.25;;;13.69;100.00
51452;BME280;37521;52.020;-1.740;2023-05-20T11:26:06;100952.97;;;14.03;100.00
51452;BME280;37521;52.020;-1.740;2023-05-20T11:28:37;100952.91;;;14.24;100.00
51452;BME280;37521;52.020;-1.740;2023-05-20T11:31:05;100963.13;;;14.14;100.00
51452;BME280;37521;52.020;-1.740;2023-05-20T11:33:34;100955.22;;;14.12;100.00
51452;BME280;37521;52.020;-1.740;2023-05-20T11:36:03;100951.56;;;14.15;100.00
51452;BME280;37521;52.020;-1.740;2023-05-20T11:38:40;100954.66;;;14.25;100.00
51452;BME280;37521;52.020;-1.740;2023-05-20T11:41:08;100948.88;;;13.96;100.00
51452;BME280;37521;52.020;-1.740;2023-05-20T11:43:38;100954.09;;;13.79;100.00
51452;BME280;37521;52.020;-1.740;2023-05-20T11:46:08;100950.59;;;13.78;100.00
51452;BME280;37521;52.020;-1.740;2023-05-20T11:48:37;100939.28;;;14.12;100.00
51452;BME280;37521;52.020;-1.740;2023-05-20T11:51:08;100934.03;;;14.30;100.00
51452;BME280;37521;52.020;-1.740;2023-05-20T11:53:39;100930.50;;;14.86;100.00
51452;BME280;37521;52.020;-1.740;2023-05-20T11:56:08;100931.59;;;15.16;100.00
51452;BME280;37521;52.020;-1.740;2023-05-20T11:58:39;100922.88;;;15.32;100.00
51452;BME280;37521;52.020;-1.740;2023-05-20T12:01:07;100922.06;;;15.47;100.00
51452;BME280;37521;52.020;-1.740;2023-05-20T12:03:48;100921.84;;;15.34;100.00
51452;BME280;37521;52.020;-1.740;2023-05-20T12:06:17;100913.06;;;15.15;100.00
51452;BME280;37521;52.020;-1.740;2023-05-20T12:08:46;100908.53;;;15.17;100.00
51452;BME280;37521;52.020;-1.740;2023-05-20T12:11:14;100917.31;;;15.19;100.00
51452;BME280;37521;52.020;-1.740;2023-05-20T12:13:44;100921.81;;;14.46;100.00
51452;BME280;37521;52.020;-1.740;2023-05-20T12:16:13;100905.34;;;14.38;100.00
51452;BME280;37521;52.020;-1.740;2023-05-20T12:18:41;100908.69;;;14.60;100.00
51452;BME280;37521;52.020;-1.740;2023-05-20T12:21:10;100911.53;;;14.75;100.00
51452;BME280;37521;52.020;-1.740;2023-05-20T12:23:38;100904.22;;;14.80;100.00
51452;BME280;37521;52.020;-1.740;2023-05-20T12:26:07;100900.53;;;14.46;98.08
51452;BME280;37521;52.020;-1.740;2023-05-20T12:28:35;100902.25;;;14.09;94.31
51452;BME280;37521;52.020;-1.740;2023-05-20T12:31:05;100894.13;;;14.12;97.06
51452;BME280;37521;52.020;-1.740;2023-05-20T12:33:34;100896.06;;;14.28;98.70
51452;BME280;37521;52.020;-1.740;2023-05-20T12:36:02;100890.22;;;14.57;95.17
51452;BME280;37521;52.020;-1.740;2023-05-20T12:38:31;100888.03;;;15.02;97.79
51452;BME280;37521;52.020;-1.740;2023-05-20T12:40:59;100891.84;;;15.31;92.90
51452;BME280;37521;52.020;-1.740;2023-05-20T12:43:28;100882.56;;;15.39;86.66
51452;BME280;37521;52.020;-1.740;2023-05-20T12:45:56;100877.28;;;15.55;89.02
51452;BME280;37521;52.020;-1.740;2023-05-20T12:48:26;100880.72;;;15.74;85.11
51452;BME280;37521;52.020;-1.740;2023-05-20T12:50:55;100876.19;;;16.08;88.17